sensor_id;sensor_type;location;lat;lon;timestamp;temperature;humidity
14471;DHT22;7321;50.802;4.336;2023-02-11T00:00:38;8.40;99.90
14471;DHT22;7321;50.802;4.336;2023-02-11T00:03:04;8.40;99.90
14471;DHT22;7321;50.802;4.336;2023-02-11T00:05:30;8.40;99.90
14471;DHT22;7321;50.802;4.336;2023-02-11T00:07:56;8.30;99.90
14471;DHT22;7321;50.802;4.336;2023-02-11T00:10:22;8.30;99.90
14471;DHT22;7321;50.802;4.336;2023-02-11T00:12:47;8.30;99.90
14471;DHT22;7321;50.802;4.336;2023-02-11T00:15:13;8.30;99.90
14471;DHT22;7321;50.802;4.336;2023-02-11T00:17:39;8.20;99.90
14471;DHT22;7321;50.802;4.336;2023-02-11T00:20:05;8.20;99.90
14471;DHT22;7321;50.802;4.336;2023-02-11T00:22:31;8.30;99.90
14471;DHT22;7321;50.802;4.336;2023-02-11T00:24:57;8.30;99.90
14471;DHT22;7321;50.802;4.336;2023-02-11T00:27:23;8.30;99.90
14471;DHT22;7321;50.802;4.336;2023-02-11T00:29:48;8.30;99.90
14471;DHT22;7321;50.802;4.336;2023-02-11T00:32:14;8.20;99.90
14471;DHT22;7321;50.802;4.336;2023-02-11T00:34:40;8.10;99.90
14471;DHT22;7321;50.802;4.336;2023-02-11T00:37:06;8.10;99.90
14471;DHT22;7321;50.802;4.336;2023-02-11T00:39:32;7.80;99.90
14471;DHT22;7321;50.802;4.336;2023-02-11T00:41:58;7.80;99.90
14471;DHT22;7321;50.802;4.336;2023-02-11T00:44:24;7.80;99.90
14471;DHT22;7321;50.802;4.336;2023-02-11T00:46:49;7.90;99.90
14471;DHT22;7321;50.802;4.336;2023-02-11T00:49:16;7.90;99.90
14471;DHT22;7321;50.802;4.336;2023-02-11T00:51:42;7.80;99.90
14471;DHT22;7321;50.802;4.336;2023-02-11T00:54:08;7.80;99.90
14471;DHT22;7321;50.802;4.336;2023-02-11T00:56:34;7.90;99.90
14471;DHT22;7321;50.802;4.336;2023-02-11T00:58:59;7.80;99.90
14471;DHT22;7321;50.802;4.336;2023-02-11T01:01:25;7.70;99.90
14471;DHT22;7321;50.802;4.336;2023-02-11T01:03:51;7.70;99.90
14471;DHT22;7321;50.802;4.336;2023-02-11T01:06:17;7.70;99.90
14471;DHT22;7321;50.802;4.336;2023-02-11T01:08:43;7.70;99.90
14471;DHT22;7321;50.802;4.336;2023-02-11T01:11:16;7.80;99.90
14471;DHT22;7321;50.802;4.336;2023-02-11T01:13:42;7.80;99.90
14471;DHT22;7321;50.802;4.336;2023-02-11T01:16:08;7.70;99.90
14471;DHT22;7321;50.802;4.336;2023-02-11T01:18:35;7.90;99.90
14471;DHT22;7321;50.802;4.336;2023-02-11T01:21:01;7.80;99.90
14471;DHT22;7321;50.802;4.336;2023-02-11T01:23:27;7.90;99.90
14471;DHT22;7321;50.802;4.336;2023-02-11T01:25:52;7.90;99.90
14471;DHT22;7321;50.802;4.336;2023-02-11T01:28:25;7.80;99.90
14471;DHT22;7321;50.802;4.336;2023-02-11T01:30:52;7.80;99.90
14471;DHT22;7321;50.802;4.336;2023-02-11T01:33:18;7.90;99.90
14471;DHT22;7321;50.802;4.336;2023-02-11T01:35:44;8.00;99.90
14471;DHT22;7321;50.802;4.336;2023-02-11T01:38:15;8.00;99.90
14471;DHT22;7321;50.802;4.336;2023-02-11T01:40:53;8.00;99.90
14471;DHT22;7321;50.802;4.336;2023-02-11T01:43:20;8.20;99.90
14471;DHT22;7321;50.802;4.336;2023-02-11T01:48:17;8.20;99.90
14471;DHT22;7321;50.802;4.336;2023-02-11T01:50:48;8.30;99.90
14471;DHT22;7321;50.802;4.336;2023-02-11T01:53:15;8.30;99.90
14471;DHT22;7321;50.802;4.336;2023-02-11T01:56:01;8.20;99.90
14471;DHT22;7321;50.802;4.336;2023-02-11T01:58:46;8.20;99.90
14471;DHT22;7321;50.802;4.336;2023-02-11T02:01:15;8.20;99.90
14471;DHT22;7321;50.802;4.336;2023-02-11T02:03:45;8.30;99.90
14471;DHT22;7321;50.802;4.336;2023-02-11T02:06:18;8.20;99.90
14471;DHT22;7321;50.802;4.336;2023-02-11T02:09:05;8.20;99.90
14471;DHT22;7321;50.802;4.336;2023-02-11T02:11:34;8.20;99.90
14471;DHT22;7321;50.802;4.336;2023-02-11T02:14:00;8.20;99.90
14471;DHT22;7321;50.802;4.336;2023-02-11T02:16:34;8.20;99.90
14471;DHT22;7321;50.802;4.336;2023-02-11T02:38:29;8.50;99.90
14471;DHT22;7321;50.802;4.336;2023-02-11T02:41:32;8.60;99.90
14471;DHT22;7321;50.802;4.336;2023-02-11T02:43:51;8.60;99.90
14471;DHT22;7321;50.802;4.336;2023-02-11T02:46:27;8.60;99.90
14471;DHT22;7321;50.802;4.336;2023-02-11T02:48:53;8.60;99.90
14471;DHT22;7321;50.802;4.336;2023-02-11T03:04:56;8.50;99.90
14471;DHT22;7321;50.802;4.336;2023-02-11T03:07:42;8.50;99.90
14471;DHT22;7321;50.802;4.336;2023-02-11T03:10:27;8.60;99.90
14471;DHT22;7321;50.802;4.336;2023-02-11T03:12:55;8.60;99.90
14471;DHT22;7321;50.802;4.336;2023-02-11T03:15:22;8.60;99.90
14471;DHT22;7321;50.802;4.336;2023-02-11T03:17:51;8.60;99.90
14471;DHT22;7321;50.802;4.336;2023-02-11T03:20:20;8.70;99.90
14471;DHT22;7321;50.802;4.336;2023-02-11T03:26:06;8.70;99.90
14471;DHT22;7321;50.802;4.336;2023-02-11T03:28:42;8.70;99.90
14471;DHT22;7321;50.802;4.336;2023-02-11T03:31:16;8.70;99.90
14471;DHT22;7321;50.802;4.336;2023-02-11T03:33:54;8.60;99.90
14471;DHT22;7321;50.802;4.336;2023-02-11T03:39:03;8.60;99.90
14471;DHT22;7321;50.802;4.336;2023-02-11T03:41:30;8.60;99.90
14471;DHT22;7321;50.802;4.336;2023-02-11T03:43:58;8.60;99.90
14471;DHT22;7321;50.802;4.336;2023-02-11T03:46:32;8.60;99.90
14471;DHT22;7321;50.802;4.336;2023-02-11T03:49:03;8.70;99.90
14471;DHT22;7321;50.802;4.336;2023-02-11T03:51:30;8.80;99.90
14471;DHT22;7321;50.802;4.336;2023-02-11T03:53:59;8.70;99.90
14471;DHT22;7321;50.802;4.336;2023-02-11T03:56:29;8.70;99.90
14471;DHT22;7321;50.802;4.336;2023-02-11T03:58:56;8.60;99.90
14471;DHT22;7321;50.802;4.336;2023-02-11T04:01:21;8.70;99.90
14471;DHT22;7321;50.802;4.336;2023-02-11T04:03:47;8.70;99.90
14471;DHT22;7321;50.802;4.336;2023-02-11T04:06:13;8.70;99.90
14471;DHT22;7321;50.802;4.336;2023-02-11T04:08:39;8.80;99.90
14471;DHT22;7321;50.802;4.336;2023-02-11T04:11:05;8.80;99.90
14471;DHT22;7321;50.802;4.336;2023-02-11T04:13:31;8.70;99.90
14471;DHT22;7321;50.802;4.336;2023-02-11T04:15:56;8.70;99.90
14471;DHT22;7321;50.802;4.336;2023-02-11T04:18:22;8.60;99.90
14471;DHT22;7321;50.802;4.336;2023-02-11T04:20:49;8.80;99.90
14471;DHT22;7321;50.802;4.336;2023-02-11T04:23:15;8.80;99.90
14471;DHT22;7321;50.802;4.336;2023-02-11T04:25:41;8.90;99.90
14471;DHT22;7321;50.802;4.336;2023-02-11T04:28:07;8.90;99.90
14471;DHT22;7321;50.802;4.336;2023-02-11T04:30:33;8.90;99.90
14471;DHT22;7321;50.802;4.336;2023-02-11T04:32:59;8.80;99.90
14471;DHT22;7321;50.802;4.336;2023-02-11T04:35:24;9.00;99.90
14471;DHT22;7321;50.802;4.336;2023-02-11T04:37:50;9.00;99.90
14471;DHT22;7321;50.802;4.336;2023-02-11T04:40:16;9.00;99.90
14471;DHT22;7321;50.802;4.336;2023-02-11T04:42:42;8.90;99.90
14471;DHT22;7321;50.802;4.336;2023-02-11T04:45:08;9.00;99.90
14471;DHT22;7321;50.802;4.336;2023-02-11T04:47:34;9.10;99.90
14471;DHT22;7321;50.802;4.336;2023-02-11T04:50:00;9.00;99.90
14471;DHT22;7321;50.802;4.336;2023-02-11T04:52:26;9.00;99.90
14471;DHT22;7321;50.802;4.336;2023-02-11T04:54:52;9.00;99.90
14471;DHT22;7321;50.802;4.336;2023-02-11T04:57:17;9.00;99.90
14471;DHT22;7321;50.802;4.336;2023-02-11T04:59:43;9.00;99.90
14471;DHT22;7321;50.802;4.336;2023-02-11T05:02:09;8.90;99.90
14471;DHT22;7321;50.802;4.336;2023-02-11T05:04:35;8.90;99.90
14471;DHT22;7321;50.802;4.336;2023-02-11T05:07:01;8.90;99.90
14471;DHT22;7321;50.802;4.336;2023-02-11T05:09:26;8.90;99.90
14471;DHT22;7321;50.802;4.336;2023-02-11T05:11:52;8.90;99.90
14471;DHT22;7321;50.802;4.336;2023-02-11T05:14:18;8.90;99.90
14471;DHT22;7321;50.802;4.336;2023-02-11T05:16:44;8.90;99.90
14471;DHT22;7321;50.802;4.336;2023-02-11T05:19:09;8.80;99.90
14471;DHT22;7321;50.802;4.336;2023-02-11T05:21:35;8.80;99.90
14471;DHT22;7321;50.802;4.336;2023-02-11T05:24:01;8.80;99.90
14471;DHT22;7321;50.802;4.336;2023-02-11T05:26:27;8.90;99.90
14471;DHT22;7321;50.802;4.336;2023-02-11T05:28:52;9.00;99.90
14471;DHT22;7321;50.802;4.336;2023-02-11T05:31:18;9.00;99.90
14471;DHT22;7321;50.802;4.336;2023-02-11T05:33:44;9.10;99.90
14471;DHT22;7321;50.802;4.336;2023-02-11T05:36:11;9.00;99.90
14471;DHT22;7321;50.802;4.336;2023-02-11T05:38:38;9.10;99.90
14471;DHT22;7321;50.802;4.336;2023-02-11T05:41:05;9.10;99.90
14471;DHT22;7321;50.802;4.336;2023-02-11T05:43:31;9.10;99.90
14471;DHT22;7321;50.802;4.336;2023-02-11T05:45:59;9.10;99.90
14471;DHT22;7321;50.802;4.336;2023-02-11T05:48:25;9.10;99.90
14471;DHT22;7321;50.802;4.336;2023-02-11T05:50:51;9.20;99.90
14471;DHT22;7321;50.802;4.336;2023-02-11T05:53:17;9.20;99.90
14471;DHT22;7321;50.802;4.336;2023-02-11T05:55:43;9.20;99.90
14471;DHT22;7321;50.802;4.336;2023-02-11T05:58:09;9.10;99.90
14471;DHT22;7321;50.802;4.336;2023-02-11T06:00:35;9.10;99.90
14471;DHT22;7321;50.802;4.336;2023-02-11T06:03:01;9.20;99.90
14471;DHT22;7321;50.802;4.336;2023-02-11T06:05:29;9.10;99.90
14471;DHT22;7321;50.802;4.336;2023-02-11T06:07:55;8.90;99.90
14471;DHT22;7321;50.802;4.336;2023-02-11T06:10:20;9.00;99.90
14471;DHT22;7321;50.802;4.336;2023-02-11T06:12:46;9.00;99.90
14471;DHT22;7321;50.802;4.336;2023-02-11T06:15:12;9.00;99.90
14471;DHT22;7321;50.802;4.336;2023-02-11T06:17:38;9.00;99.90
14471;DHT22;7321;50.802;4.336;2023-02-11T06:20:06;9.00;99.90
14471;DHT22;7321;50.802;4.336;2023-02-11T06:22:32;9.00;99.90
14471;DHT22;7321;50.802;4.336;2023-02-11T06:24:57;8.80;99.90
14471;DHT22;7321;50.802;4.336;2023-02-11T06:27:23;8.80;99.90
14471;DHT22;7321;50.802;4.336;2023-02-11T06:29:49;8.80;99.90
14471;DHT22;7321;50.802;4.336;2023-02-11T06:32:17;8.80;99.90
14471;DHT22;7321;50.802;4.336;2023-02-11T06:34:44;8.80;99.90
14471;DHT22;7321;50.802;4.336;2023-02-11T06:37:09;8.80;99.90
14471;DHT22;7321;50.802;4.336;2023-02-11T06:39:35;8.90;99.90
14471;DHT22;7321;50.802;4.336;2023-02-11T06:42:01;8.90;99.90
14471;DHT22;7321;50.802;4.336;2023-02-11T06:44:27;8.90;99.90
14471;DHT22;7321;50.802;4.336;2023-02-11T06:46:53;8.90;99.90
14471;DHT22;7321;50.802;4.336;2023-02-11T06:49:18;9.00;99.90
14471;DHT22;7321;50.802;4.336;2023-02-11T06:51:44;8.90;99.90
14471;DHT22;7321;50.802;4.336;2023-02-11T06:54:11;9.00;99.90
14471;DHT22;7321;50.802;4.336;2023-02-11T06:56:39;9.10;99.90
14471;DHT22;7321;50.802;4.336;2023-02-11T06:59:06;9.10;99.90
14471;DHT22;7321;50.802;4.336;2023-02-11T07:01:32;9.20;99.90
14471;DHT22;7321;50.802;4.336;2023-02-11T07:03:58;9.10;99.90
14471;DHT22;7321;50.802;4.336;2023-02-11T07:06:25;9.10;99.90
14471;DHT22;7321;50.802;4.336;2023-02-11T07:08:54;9.10;99.90
14471;DHT22;7321;50.802;4.336;2023-02-11T07:11:25;9.00;99.90
14471;DHT22;7321;50.802;4.336;2023-02-11T07:13:53;9.10;99.90
14471;DHT22;7321;50.802;4.336;2023-02-11T07:16:20;9.20;99.90
14471;DHT22;7321;50.802;4.336;2023-02-11T07:18:47;9.10;99.90
14471;DHT22;7321;50.802;4.336;2023-02-11T07:21:17;9.10;99.90
14471;DHT22;7321;50.802;4.336;2023-02-11T07:23:43;9.10;99.90
14471;DHT22;7321;50.802;4.336;2023-02-11T07:26:11;8.90;99.90
14471;DHT22;7321;50.802;4.336;2023-02-11T07:28:38;9.00;99.90
14471;DHT22;7321;50.802;4.336;2023-02-11T07:31:13;9.00;99.90
14471;DHT22;7321;50.802;4.336;2023-02-11T07:33:39;9.00;99.90
14471;DHT22;7321;50.802;4.336;2023-02-11T07:36:07;9.00;99.90
14471;DHT22;7321;50.802;4.336;2023-02-11T07:38:35;9.10;99.90
14471;DHT22;7321;50.802;4.336;2023-02-11T07:41:06;9.10;99.90
14471;DHT22;7321;50.802;4.336;2023-02-11T07:43:33;9.20;99.90
14471;DHT22;7321;50.802;4.336;2023-02-11T07:46:03;9.20;99.90
14471;DHT22;7321;50.802;4.336;2023-02-11T07:48:29;9.20;99.90
14471;DHT22;7321;50.802;4.336;2023-02-11T07:50:55;9.20;99.90
14471;DHT22;7321;50.802;4.336;2023-02-11T07:53:21;9.20;99.90
14471;DHT22;7321;50.802;4.336;2023-02-11T07:55:47;9.30;99.90
14471;DHT22;7321;50.802;4.336;2023-02-11T07:58:12;9.40;99.90
14471;DHT22;7321;50.802;4.336;2023-02-11T08:00:38;9.40;99.90
14471;DHT22;7321;50.802;4.336;2023-02-11T08:03:04;9.30;99.90
14471;DHT22;7321;50.802;4.336;2023-02-11T08:05:32;9.30;99.90
14471;DHT22;7321;50.802;4.336;2023-02-11T08:08:01;9.30;99.90
14471;DHT22;7321;50.802;4.336;2023-02-11T08:10:27;9.30;99.90
14471;DHT22;7321;50.802;4.336;2023-02-11T08:12:53;9.40;99.90
14471;DHT22;7321;50.802;4.336;2023-02-11T08:15:19;9.30;99.90
14471;DHT22;7321;50.802;4.336;2023-02-11T08:17:45;9.30;99.90
14471;DHT22;7321;50.802;4.336;2023-02-11T08:20:12;9.20;99.90
14471;DHT22;7321;50.802;4.336;2023-02-11T08:22:37;9.20;99.90
14471;DHT22;7321;50.802;4.336;2023-02-11T08:25:03;9.20;99.90
14471;DHT22;7321;50.802;4.336;2023-02-11T08:27:29;9.20;99.90
14471;DHT22;7321;50.802;4.336;2023-02-11T08:29:55;9.30;99.90
14471;DHT22;7321;50.802;4.336;2023-02-11T08:32:21;9.20;99.90
14471;DHT22;7321;50.802;4.336;2023-02-11T08:34:53;9.20;99.90
14471;DHT22;7321;50.802;4.336;2023-02-11T08:37:19;9.10;99.90
14471;DHT22;7321;50.802;4.336;2023-02-11T08:39:45;9.20;99.90
14471;DHT22;7321;50.802;4.336;2023-02-11T08:42:12;9.20;99.90
14471;DHT22;7321;50.802;4.336;2023-02-11T08:44:40;9.30;99.90
14471;DHT22;7321;50.802;4.336;2023-02-11T08:47:05;9.20;99.90
14471;DHT22;7321;50.802;4.336;2023-02-11T08:49:31;9.20;99.90
14471;DHT22;7321;50.802;4.336;2023-02-11T08:51:59;9.30;99.90
14471;DHT22;7321;50.802;4.336;2023-02-11T08:54:29;9.40;99.90
14471;DHT22;7321;50.802;4.336;2023-02-11T08:56:55;9.50;99.90
14471;DHT22;7321;50.802;4.336;2023-02-11T08:59:21;9.50;99.90
14471;DHT22;7321;50.802;4.336;2023-02-11T09:01:47;9.60;99.90
14471;DHT22;7321;50.802;4.336;2023-02-11T09:04:13;9.50;99.90
14471;DHT22;7321;50.802;4.336;2023-02-11T09:06:39;9.60;99.90
14471;DHT22;7321;50.802;4.336;2023-02-11T09:09:05;9.60;99.90
14471;DHT22;7321;50.802;4.336;2023-02-11T09:11:35;9.60;99.90
14471;DHT22;7321;50.802;4.336;2023-02-11T09:14:02;9.60;99.90
14471;DHT22;7321;50.802;4.336;2023-02-11T09:16:32;9.60;99.90
14471;DHT22;7321;50.802;4.336;2023-02-11T09:19:01;9.50;99.90
14471;DHT22;7321;50.802;4.336;2023-02-11T09:21:28;9.50;99.90
14471;DHT22;7321;50.802;4.336;2023-02-11T09:23:54;9.60;99.90
14471;DHT22;7321;50.802;4.336;2023-02-11T09:26:27;9.60;99.90
14471;DHT22;7321;50.802;4.336;2023-02-11T09:28:53;9.60;99.90
14471;DHT22;7321;50.802;4.336;2023-02-11T09:31:21;9.70;99.90
14471;DHT22;7321;50.802;4.336;2023-02-11T09:33:49;9.80;99.90
14471;DHT22;7321;50.802;4.336;2023-02-11T09:36:20;9.80;99.90
14471;DHT22;7321;50.802;4.336;2023-02-11T09:38:47;9.90;99.90
14471;DHT22;7321;50.802;4.336;2023-02-11T09:43:52;9.90;99.90
14471;DHT22;7321;50.802;4.336;2023-02-11T09:46:19;9.90;99.90
14471;DHT22;7321;50.802;4.336;2023-02-11T09:48:48;9.80;99.90
14471;DHT22;7321;50.802;4.336;2023-02-11T09:53:51;9.90;99.90
14471;DHT22;7321;50.802;4.336;2023-02-11T09:56:21;10.10;99.90
14471;DHT22;7321;50.802;4.336;2023-02-11T09:58:48;10.10;99.90
14471;DHT22;7321;50.802;4.336;2023-02-11T10:01:29;9.90;99.90
14471;DHT22;7321;50.802;4.336;2023-02-11T10:04:13;10.00;99.90
14471;DHT22;7321;50.802;4.336;2023-02-11T10:06:49;10.00;99.90
14471;DHT22;7321;50.802;4.336;2023-02-11T10:12:38;9.90;99.90
14471;DHT22;7321;50.802;4.336;2023-02-11T10:21:18;9.90;99.90
14471;DHT22;7321;50.802;4.336;2023-02-11T10:23:53;10.00;99.90
14471;DHT22;7321;50.802;4.336;2023-02-11T10:26:19;10.00;99.90
14471;DHT22;7321;50.802;4.336;2023-02-11T10:28:47;10.10;99.90
14471;DHT22;7321;50.802;4.336;2023-02-11T10:31:18;10.20;99.90
14471;DHT22;7321;50.802;4.336;2023-02-11T10:33:59;10.20;99.90
14471;DHT22;7321;50.802;4.336;2023-02-11T10:36:28;10.20;99.90
14471;DHT22;7321;50.802;4.336;2023-02-11T10:38:57;10.20;99.90
14471;DHT22;7321;50.802;4.336;2023-02-11T10:41:31;10.30;99.90
14471;DHT22;7321;50.802;4.336;2023-02-11T10:44:01;10.30;99.90
14471;DHT22;7321;50.802;4.336;2023-02-11T10:46:32;10.30;99.90
14471;DHT22;7321;50.802;4.336;2023-02-11T10:49:01;10.40;99.90
14471;DHT22;7321;50.802;4.336;2023-02-11T10:51:30;10.30;99.90
14471;DHT22;7321;50.802;4.336;2023-02-11T10:56:40;10.60;99.90
14471;DHT22;7321;50.802;4.336;2023-02-11T11:01:42;10.60;99.90
14471;DHT22;7321;50.802;4.336;2023-02-11T11:07:08;10.50;99.90
14471;DHT22;7321;50.802;4.336;2023-02-11T11:17:36;10.50;99.90
14471;DHT22;7321;50.802;4.336;2023-02-11T11:20:22;10.40;99.90
14471;DHT22;7321;50.802;4.336;2023-02-11T11:22:51;10.50;99.90
14471;DHT22;7321;50.802;4.336;2023-02-11T11:25:27;10.50;99.90
14471;DHT22;7321;50.802;4.336;2023-02-11T11:27:56;10.40;99.90
14471;DHT22;7321;50.802;4.336;2023-02-11T11:30:29;10.40;99.90
14471;DHT22;7321;50.802;4.336;2023-02-11T11:32:57;10.50;99.90
14471;DHT22;7321;50.802;4.336;2023-02-11T11:35:28;10.70;99.90
14471;DHT22;7321;50.802;4.336;2023-02-11T11:37:58;10.70;99.90
14471;DHT22;7321;50.802;4.336;2023-02-11T11:40:28;10.70;99.90
14471;DHT22;7321;50.802;4.336;2023-02-11T11:45:38;10.80;99.90
14471;DHT22;7321;50.802;4.336;2023-02-11T11:53:40;10.90;99.90
14471;DHT22;7321;50.802;4.336;2023-02-11T11:56:15;11.10;99.90
14471;DHT22;7321;50.802;4.336;2023-02-11T11:58:43;11.10;99.90
14471;DHT22;7321;50.802;4.336;2023-02-11T12:01:36;11.10;99.90
14471;DHT22;7321;50.802;4.336;2023-02-11T12:04:17;11.00;99.90
14471;DHT22;7321;50.802;4.336;2023-02-11T12:15:28;10.90;99.90
14471;DHT22;7321;50.802;4.336;2023-02-11T12:26:15;10.80;99.90
14471;DHT22;7321;50.802;4.336;2023-02-11T12:31:52;10.90;99.90
14471;DHT22;7321;50.802;4.336;2023-02-11T12:37:22;11.00;99.90
14471;DHT22;7321;50.802;4.336;2023-02-11T12:40:08;11.10;99.90
14471;DHT22;7321;50.802;4.336;2023-02-11T12:42:51;11.10;99.90
14471;DHT22;7321;50.802;4.336;2023-02-11T12:51:46;11.10;99.90
14471;DHT22;7321;50.802;4.336;2023-02-11T12:54:34;11.20;99.90
14471;DHT22;7321;50.802;4.336;2023-02-11T12:59:56;11.10;99.90
14471;DHT22;7321;50.802;4.336;2023-02-11T13:08:39;11.30;99.90
14471;DHT22;7321;50.802;4.336;2023-02-11T13:11:13;11.30;99.90
14471;DHT22;7321;50.802;4.336;2023-02-11T13:16:44;11.10;99.90
14471;DHT22;7321;50.802;4.336;2023-02-11T13:19:39;11.20;99.90
14471;DHT22;7321;50.802;4.336;2023-02-11T13:22:32;11.10;99.90
14471;DHT22;7321;50.802;4.336;2023-02-11T13:25:21;11.10;99.90
14471;DHT22;7321;50.802;4.336;2023-02-11T13:27:56;11.10;99.90
14471;DHT22;7321;50.802;4.336;2023-02-11T13:30:29;11.10;99.90
14471;DHT22;7321;50.802;4.336;2023-02-11T13:35:28;11.10;99.90
14471;DHT22;7321;50.802;4.336;2023-02-11T13:37:58;11.20;99.90
14471;DHT22;7321;50.802;4.336;2023-02-11T13:40:29;11.20;99.90
14471;DHT22;7321;50.802;4.336;2023-02-11T13:42:58;11.20;99.90
14471;DHT22;7321;50.802;4.336;2023-02-11T13:48:14;11.30;99.90
14471;DHT22;7321;50.802;4.336;2023-02-11T13:50:47;11.20;99.90
14471;DHT22;7321;50.802;4.336;2023-02-11T13:53:13;11.30;99.90
14471;DHT22;7321;50.802;4.336;2023-02-11T13:55:47;11.30;99.90
14471;DHT22;7321;50.802;4.336;2023-02-11T14:11:52;11.20;99.90
14471;DHT22;7321;50.802;4.336;2023-02-11T14:22:11;11.60;99.90
14471;DHT22;7321;50.802;4.336;2023-02-11T14:27:05;11.70;99.90
14471;DHT22;7321;50.802;4.336;2023-02-11T14:41:23;11.50;99.90
14471;DHT22;7321;50.802;4.336;2023-02-11T14:43:56;11.50;99.90
14471;DHT22;7321;50.802;4.336;2023-02-11T14:46:23;11.50;99.90
14471;DHT22;7321;50.802;4.336;2023-02-11T14:48:54;11.50;99.90
14471;DHT22;7321;50.802;4.336;2023-02-11T14:51:27;11.50;99.90
14471;DHT22;7321;50.802;4.336;2023-02-11T14:54:16;11.50;99.90
14471;DHT22;7321;50.802;4.336;2023-02-11T14:56:43;11.60;99.90
14471;DHT22;7321;50.802;4.336;2023-02-11T14:59:21;11.70;99.90
14471;DHT22;7321;50.802;4.336;2023-02-11T15:01:52;11.70;99.90
14471;DHT22;7321;50.802;4.336;2023-02-11T15:06:48;11.70;99.90
14471;DHT22;7321;50.802;4.336;2023-02-11T15:12:18;11.80;99.90
14471;DHT22;7321;50.802;4.336;2023-02-11T15:14:50;11.90;99.90
14471;DHT22;7321;50.802;4.336;2023-02-11T15:17:21;11.90;99.90
14471;DHT22;7321;50.802;4.336;2023-02-11T15:19:51;11.80;99.90
14471;DHT22;7321;50.802;4.336;2023-02-11T15:22:22;11.70;99.90
14471;DHT22;7321;50.802;4.336;2023-02-11T15:27:43;11.70;99.90
14471;DHT22;7321;50.802;4.336;2023-02-11T15:32:48;11.70;99.90
14471;DHT22;7321;50.802;4.336;2023-02-11T15:35:15;11.80;99.90
14471;DHT22;7321;50.802;4.336;2023-02-11T15:37:43;11.80;99.90
14471;DHT22;7321;50.802;4.336;2023-02-11T15:40:10;11.80;99.90
14471;DHT22;7321;50.802;4.336;2023-02-11T15:42:37;11.70;99.90
14471;DHT22;7321;50.802;4.336;2023-02-11T15:47:51;11.80;99.90
14471;DHT22;7321;50.802;4.336;2023-02-11T15:50:24;11.80;99.90
14471;DHT22;7321;50.802;4.336;2023-02-11T15:52:51;11.80;99.90
14471;DHT22;7321;50.802;4.336;2023-02-11T15:55:18;11.80;99.90
14471;DHT22;7321;50.802;4.336;2023-02-11T15:57:56;11.60;99.90
14471;DHT22;7321;50.802;4.336;2023-02-11T16:00:24;11.60;99.90
14471;DHT22;7321;50.802;4.336;2023-02-11T16:02:52;11.50;99.90
14471;DHT22;7321;50.802;4.336;2023-02-11T16:05:26;11.50;99.90
14471;DHT22;7321;50.802;4.336;2023-02-11T16:07:52;11.50;99.90
14471;DHT22;7321;50.802;4.336;2023-02-11T16:10:31;11.60;99.90
14471;DHT22;7321;50.802;4.336;2023-02-11T16:18:11;11.60;99.90
14471;DHT22;7321;50.802;4.336;2023-02-11T16:20:38;11.60;99.90
14471;DHT22;7321;50.802;4.336;2023-02-11T16:23:05;11.50;99.90
14471;DHT22;7321;50.802;4.336;2023-02-11T16:25:34;11.60;99.90
14471;DHT22;7321;50.802;4.336;2023-02-11T16:28:00;11.60;99.90
14471;DHT22;7321;50.802;4.336;2023-02-11T16:30:34;11.70;99.90
14471;DHT22;7321;50.802;4.336;2023-02-11T16:33:02;11.70;99.90
14471;DHT22;7321;50.802;4.336;2023-02-11T16:35:30;11.70;99.90
14471;DHT22;7321;50.802;4.336;2023-02-11T16:37:56;11.80;99.90
14471;DHT22;7321;50.802;4.336;2023-02-11T16:40:22;11.80;99.90
14471;DHT22;7321;50.802;4.336;2023-02-11T16:42:48;11.70;99.90
14471;DHT22;7321;50.802;4.336;2023-02-11T16:45:15;11.70;99.90
14471;DHT22;7321;50.802;4.336;2023-02-11T16:47:42;11.80;99.90
14471;DHT22;7321;50.802;4.336;2023-02-11T16:50:10;11.70;99.90
14471;DHT22;7321;50.802;4.336;2023-02-11T16:52:36;11.70;99.90
14471;DHT22;7321;50.802;4.336;2023-02-11T16:55:04;11.70;99.90
14471;DHT22;7321;50.802;4.336;2023-02-11T16:57:30;11.70;99.90
14471;DHT22;7321;50.802;4.336;2023-02-11T16:59:57;11.70;99.90
14471;DHT22;7321;50.802;4.336;2023-02-11T17:02:29;11.70;99.90
14471;DHT22;7321;50.802;4.336;2023-02-11T17:04:58;11.70;99.90
14471;DHT22;7321;50.802;4.336;2023-02-11T17:07:27;11.70;99.90
14471;DHT22;7321;50.802;4.336;2023-02-11T17:09:53;11.70;99.90
14471;DHT22;7321;50.802;4.336;2023-02-11T17:12:20;11.70;99.90
14471;DHT22;7321;50.802;4.336;2023-02-11T17:14:46;11.80;99.90
14471;DHT22;7321;50.802;4.336;2023-02-11T17:17:12;11.70;99.90
14471;DHT22;7321;50.802;4.336;2023-02-11T17:19:38;11.60;99.90
14471;DHT22;7321;50.802;4.336;2023-02-11T17:22:05;11.60;99.90
14471;DHT22;7321;50.802;4.336;2023-02-11T17:24:31;11.70;99.90
14471;DHT22;7321;50.802;4.336;2023-02-11T17:26:57;11.70;99.90
14471;DHT22;7321;50.802;4.336;2023-02-11T17:29:24;11.60;99.90
14471;DHT22;7321;50.802;4.336;2023-02-11T17:31:51;11.60;99.90
14471;DHT22;7321;50.802;4.336;2023-02-11T17:34:17;11.60;99.90
14471;DHT22;7321;50.802;4.336;2023-02-11T17:36:43;11.60;99.90
14471;DHT22;7321;50.802;4.336;2023-02-11T17:39:10;11.60;99.90
14471;DHT22;7321;50.802;4.336;2023-02-11T17:41:37;11.50;99.90
14471;DHT22;7321;50.802;4.336;2023-02-11T17:44:03;11.50;99.90
14471;DHT22;7321;50.802;4.336;2023-02-11T17:46:29;11.50;99.90
14471;DHT22;7321;50.802;4.336;2023-02-11T17:49:00;11.40;99.90
14471;DHT22;7321;50.802;4.336;2023-02-11T17:51:35;11.40;99.90
14471;DHT22;7321;50.802;4.336;2023-02-11T17:54:04;11.50;99.90
14471;DHT22;7321;50.802;4.336;2023-02-11T17:56:35;11.50;99.90
14471;DHT22;7321;50.802;4.336;2023-02-11T17:59:01;11.50;99.90
14471;DHT22;7321;50.802;4.336;2023-02-11T18:01:29;11.50;99.90
14471;DHT22;7321;50.802;4.336;2023-02-11T18:03:55;11.50;99.90
14471;DHT22;7321;50.802;4.336;2023-02-11T18:06:20;11.50;99.90
14471;DHT22;7321;50.802;4.336;2023-02-11T18:08:47;11.60;99.90
14471;DHT22;7321;50.802;4.336;2023-02-11T18:11:13;11.50;99.90
14471;DHT22;7321;50.802;4.336;2023-02-11T18:13:43;11.50;99.90
14471;DHT22;7321;50.802;4.336;2023-02-11T18:16:10;11.50;99.90
14471;DHT22;7321;50.802;4.336;2023-02-11T18:18:43;11.40;99.90
14471;DHT22;7321;50.802;4.336;2023-02-11T18:21:14;11.40;99.90
14471;DHT22;7321;50.802;4.336;2023-02-11T18:23:40;11.40;99.90
14471;DHT22;7321;50.802;4.336;2023-02-11T18:26:06;11.40;99.90
14471;DHT22;7321;50.802;4.336;2023-02-11T18:28:32;11.40;99.90
14471;DHT22;7321;50.802;4.336;2023-02-11T18:30:58;11.40;99.90
14471;DHT22;7321;50.802;4.336;2023-02-11T18:33:25;11.40;99.90
14471;DHT22;7321;50.802;4.336;2023-02-11T18:35:51;11.50;99.90
14471;DHT22;7321;50.802;4.336;2023-02-11T18:38:17;11.40;99.90
14471;DHT22;7321;50.802;4.336;2023-02-11T18:40:47;11.40;99.90
14471;DHT22;7321;50.802;4.336;2023-02-11T18:43:15;11.40;99.90
14471;DHT22;7321;50.802;4.336;2023-02-11T18:45:43;11.40;99.90
14471;DHT22;7321;50.802;4.336;2023-02-11T18:48:09;11.40;99.90
14471;DHT22;7321;50.802;4.336;2023-02-11T18:50:36;11.40;99.90
14471;DHT22;7321;50.802;4.336;2023-02-11T18:53:04;11.50;99.90
14471;DHT22;7321;50.802;4.336;2023-02-11T18:55:29;11.40;99.90
14471;DHT22;7321;50.802;4.336;2023-02-11T18:57:56;11.40;99.90
14471;DHT22;7321;50.802;4.336;2023-02-11T19:00:22;11.40;99.90
14471;DHT22;7321;50.802;4.336;2023-02-11T19:02:48;11.50;99.90
14471;DHT22;7321;50.802;4.336;2023-02-11T19:05:14;11.40;99.90